Time;durP1;ratioP1;P1;durP2;ratioP2;P2;SDS_P1;SDS_P2;PMS_P1;PMS_P2;Temp;Humidity;BMP_temperature;BMP_pressure;BME280_temperature;BME280_humidity;BME280_pressure;Samples;Min_cycle;Max_cycle;Signal;HPM_P1;HPM_P2
2023/10/05 00:01:27;;;;;;;5.33;4.17;;;18.80;94.10;;;;;;4934634;29;20482;-81
2023/10/05 00:03:58;;;;;;;6.80;3.70;;;18.80;94.10;;;;;;4938915;28;20466;-81
2023/10/05 00:06:27;;;;;;;5.67;3.67;;;18.70;94.10;;;;;;4925748;29;21022;-80
2023/10/05 00:08:59;;;;;;;8.40;4.00;;;18.70;94.20;;;;;;4959379;28;20423;-81
2023/10/05 00:11:29;;;;;;;7.20;4.60;;;18.70;94.00;;;;;;4934787;29;20458;-81
2023/10/05 00:14:01;;;;;;;5.77;3.80;;;18.80;94.10;;;;;;4918809;28;20486;-80
2023/10/05 00:16:36;;;;;;;7.10;3.83;;;18.80;94.10;;;;;;4956262;28;20462;-81
2023/10/05 00:19:10;;;;;;;5.43;4.13;;;18.80;94.10;;;;;;4938059;28;21126;-81
2023/10/05 00:21:51;;;;;;;6.50;3.93;;;18.70;94.00;;;;;;4940197;29;20528;-80
2023/10/05 00:24:37;;;;;;;9.77;4.53;;;18.70;94.00;;;;;;4954363;28;20422;-80
2023/10/05 00:27:09;;;;;;;7.13;4.20;;;18.70;94.00;;;;;;4953086;28;20442;-80
2023/10/05 00:29:49;;;;;;;6.43;4.07;;;18.70;94.00;;;;;;4918193;29;20521;-80
2023/10/05 00:32:15;;;;;;;6.37;3.93;;;18.70;94.10;;;;;;4929021;28;20453;-80
2023/10/05 00:34:50;;;;;;;7.10;4.40;;;18.70;94.10;;;;;;4942075;29;20541;-80
2023/10/05 00:37:22;;;;;;;8.30;4.13;;;18.70;94.00;;;;;;4918083;28;20442;-81
2023/10/05 00:39:49;;;;;;;7.00;5.40;;;18.70;94.10;;;;;;4933489;29;20513;-80
2023/10/05 00:42:18;;;;;;;7.43;4.33;;;18.70;94.10;;;;;;4937076;28;20433;-80
2023/10/05 00:44:44;;;;;;;6.90;4.47;;;18.70;94.10;;;;;;4922346;29;20473;-81
2023/10/05 00:47:13;;;;;;;11.23;4.00;;;18.70;94.10;;;;;;4933873;29;20466;-81
2023/10/05 00:49:52;;;;;;;9.37;4.00;;;18.60;94.00;;;;;;4917990;29;20475;-80
2023/10/05 00:52:25;;;;;;;5.40;4.60;;;18.60;94.00;;;;;;4934363;29;20971;-81
2023/10/05 00:54:58;;;;;;;10.33;4.20;;;18.60;94.00;;;;;;4917888;29;20541;-80
2023/10/05 00:57:24;;;;;;;5.70;4.00;;;18.60;94.00;;;;;;4933038;29;20451;-80
2023/10/05 01:02:45;;;;;;;6.60;3.77;;;18.60;94.00;;;;;;4944093;29;20419;-80
2023/10/05 01:05:25;;;;;;;4.50;3.57;;;18.60;94.00;;;;;;4934147;29;20430;-80
2023/10/05 01:07:56;;;;;;;6.07;3.70;;;18.60;94.00;;;;;;4933456;29;20465;-81
2023/10/05 01:10:40;;;;;;;7.90;4.30;;;18.60;94.00;;;;;;4918543;29;21077;-80
2023/10/05 01:13:32;;;;;;;4.53;3.60;;;18.60;94.00;;;;;;4933806;29;20459;-81
2023/10/05 01:15:59;;;;;;;5.03;3.53;;;18.60;94.00;;;;;;4950530;29;20474;-80
2023/10/05 01:18:26;;;;;;;8.33;4.30;;;18.60;94.00;;;;;;4933691;29;20442;-80
2023/10/05 01:20:57;;;;;;;8.63;3.50;;;18.60;94.00;;;;;;4932992;29;20510;-81
2023/10/05 01:23:37;;;;;;;6.30;3.87;;;18.60;94.00;;;;;;4950156;29;20426;-80
2023/10/05 01:26:10;;;;;;;5.10;3.63;;;18.60;94.00;;;;;;4918074;29;20520;-80
2023/10/05 01:28:44;;;;;;;6.77;4.20;;;18.60;94.00;;;;;;4902600;29;20466;-80
2023/10/05 01:31:16;;;;;;;5.33;3.50;;;18.60;94.00;;;;;;4933727;29;20544;-81
2023/10/05 01:33:46;;;;;;;5.90;3.03;;;18.60;94.00;;;;;;4917785;29;21179;-81
2023/10/05 01:36:16;;;;;;;6.53;4.33;;;18.60;94.00;;;;;;4901701;29;20488;-81
2023/10/05 01:38:44;;;;;;;6.07;3.47;;;18.50;93.90;;;;;;4950224;29;20446;-81
2023/10/05 01:41:20;;;;;;;7.93;3.43;;;18.50;93.90;;;;;;4917973;29;20585;-80
2023/10/05 01:43:49;;;;;;;5.90;3.40;;;18.60;94.00;;;;;;4934097;29;20446;-81
2023/10/05 01:46:15;;;;;;;5.63;3.40;;;18.50;93.90;;;;;;4901814;29;20454;-81
2023/10/05 01:48:42;;;;;;;6.50;3.40;;;18.60;94.00;;;;;;4933533;29;20506;-81
2023/10/05 01:51:14;;;;;;;5.80;3.40;;;18.50;93.90;;;;;;4920795;29;20442;-81
2023/10/05 01:53:44;;;;;;;5.57;3.73;;;18.50;93.90;;;;;;4957901;29;20585;-81
2023/10/05 01:56:20;;;;;;;6.90;4.23;;;18.50;93.90;;;;;;4925509;29;20439;-81
2023/10/05 01:58:50;;;;;;;4.20;3.33;;;18.50;93.90;;;;;;4929367;29;20468;-81
2023/10/05 02:01:28;;;;;;;4.80;3.47;;;18.50;94.00;;;;;;4946311;29;20925;-81
2023/10/05 02:03:54;;;;;;;6.73;3.63;;;18.50;93.90;;;;;;4948001;29;20458;-81
2023/10/05 02:06:20;;;;;;;5.43;3.30;;;18.50;94.00;;;;;;4933913;29;20431;-81
2023/10/05 02:08:54;;;;;;;4.97;3.50;;;18.50;93.90;;;;;;4948597;29;20792;-81
2023/10/05 02:11:24;;;;;;;5.63;4.03;;;18.50;93.90;;;;;;4941118;29;20493;-80
2023/10/05 02:14:04;;;;;;;4.80;3.20;;;18.50;93.90;;;;;;4942167;29;20497;-79
2023/10/05 02:16:33;;;;;;;6.23;3.70;;;18.50;93.90;;;;;;4938474;29;20442;-80
2023/10/05 02:19:02;;;;;;;6.23;3.53;;;18.50;93.90;;;;;;4936663;29;20418;-80
2023/10/05 02:21:36;;;;;;;4.97;3.37;;;18.40;93.80;;;;;;4936545;29;21114;-80
2023/10/05 02:24:18;;;;;;;3.97;3.10;;;18.50;93.90;;;;;;4938173;29;20448;-81
2023/10/05 02:29:24;;;;;;;7.03;3.30;;;18.40;93.80;;;;;;4936161;29;20441;-80
2023/10/05 02:34:21;;;;;;;5.07;4.07;;;18.40;93.80;;;;;;4945263;29;20438;-80
2023/10/05 02:36:50;;;;;;;4.37;2.90;;;18.40;93.90;;;;;;4953093;29;20444;-80
2023/10/05 02:39:16;;;;;;;7.17;3.43;;;18.40;93.90;;;;;;4919857;29;20466;-80
2023/10/05 02:41:43;;;;;;;6.07;3.77;;;18.40;93.90;;;;;;4939435;29;20441;-80
2023/10/05 02:44:17;;;;;;;5.60;3.40;;;18.40;93.80;;;;;;4935991;29;20441;-81
2023/10/05 02:46:47;;;;;;;5.27;3.50;;;18.50;93.90;;;;;;4932625;29;20505;-81
2023/10/05 02:49:15;;;;;;;6.33;3.70;;;18.40;93.90;;;;;;4935341;29;20508;-80
2023/10/05 02:51:52;;;;;;;4.80;3.87;;;18.40;93.80;;;;;;4952001;29;20435;-80
2023/10/05 02:54:21;;;;;;;3.87;3.50;;;18.40;93.90;;;;;;4920644;29;20537;-80
2023/10/05 02:56:53;;;;;;;3.57;3.20;;;18.40;93.80;;;;;;4928508;28;20457;-80
2023/10/05 02:59:21;;;;;;;4.97;2.97;;;18.40;93.80;;;;;;4968713;28;21405;-81
2023/10/05 03:01:48;;;;;;;5.40;2.83;;;18.40;93.80;;;;;;4956034;28;20430;-81
2023/10/05 03:06:45;;;;;;;4.40;2.87;;;18.40;93.90;;;;;;4939491;28;20472;-81
2023/10/05 03:09:11;;;;;;;5.10;3.37;;;18.30;93.80;;;;;;4938444;28;20496;-80
2023/10/05 03:11:40;;;;;;;6.43;3.50;;;18.30;93.90;;;;;;4955194;28;20871;-80
2023/10/05 03:14:11;;;;;;;4.27;3.77;;;18.40;93.80;;;;;;4938639;28;20511;-81
2023/10/05 03:16:44;;;;;;;4.97;3.50;;;18.30;93.80;;;;;;4961222;28;21205;-79
2023/10/05 03:19:20;;;;;;;3.87;3.47;;;18.30;93.80;;;;;;4954751;28;20926;-80
2023/10/05 03:21:53;;;;;;;4.50;4.00;;;18.30;93.80;;;;;;4955699;28;20453;-80
2023/10/05 03:24:24;;;;;;;5.23;3.30;;;18.40;93.90;;;;;;4954807;28;20448;-80
2023/10/05 03:26:54;;;;;;;5.07;3.30;;;18.30;93.80;;;;;;4938747;28;20448;-80
2023/10/05 03:29:24;;;;;;;5.17;3.57;;;18.30;93.80;;;;;;4954220;28;21059;-80
2023/10/05 03:32:35;;;;;;;4.57;3.93;;;18.30;93.90;;;;;;4954335;28;20455;-80
2023/10/05 03:34:55;;;;;;;3.97;3.67;;;18.30;93.80;;;;;;4960529;28;20468;-81
2023/10/05 03:37:29;;;;;;;5.07;3.60;;;18.30;93.80;;;;;;4970078;28;20441;-80
2023/10/05 03:42:31;;;;;;;5.40;3.43;;;18.30;93.90;;;;;;4953856;28;20466;-81
2023/10/05 03:45:03;;;;;;;5.07;3.67;;;18.30;93.90;;;;;;4953973;28;20722;-81
2023/10/05 03:47:29;;;;;;;4.20;3.80;;;18.30;93.90;;;;;;4954221;28;20445;-80
2023/10/05 03:49:55;;;;;;;4.53;3.80;;;18.30;93.90;;;;;;4954674;28;20439;-80
2023/10/05 03:52:29;;;;;;;4.00;3.70;;;18.30;93.90;;;;;;4970657;28;20417;-80
2023/10/05 03:55:04;;;;;;;4.97;3.83;;;18.30;94.00;;;;;;4970880;28;20429;-80
2023/10/05 03:57:34;;;;;;;6.10;3.23;;;18.30;93.90;;;;;;4934534;29;20577;-80
2023/10/05 04:00:18;;;;;;;4.50;3.73;;;18.30;93.90;;;;;;4950548;29;20489;-81
2023/10/05 04:02:46;;;;;;;3.90;3.33;;;18.20;93.90;;;;;;4952900;28;21048;-81
2023/10/05 04:05:18;;;;;;;6.60;3.67;;;18.20;93.90;;;;;;4954147;29;20803;-80
2023/10/05 04:07:50;;;;;;;5.97;3.80;;;18.20;93.90;;;;;;4956578;29;20446;-80
2023/10/05 04:10:21;;;;;;;5.67;3.30;;;18.30;93.90;;;;;;4938703;29;20485;-80
2023/10/05 04:12:51;;;;;;;3.50;3.20;;;18.20;93.90;;;;;;4937076;28;20481;-80
2023/10/05 04:15:20;;;;;;;4.47;3.30;;;18.20;93.90;;;;;;4947850;29;20422;-80
2023/10/05 04:17:50;;;;;;;3.73;2.70;;;18.20;93.90;;;;;;4935200;29;20570;-81
2023/10/05 04:20:27;;;;;;;4.50;4.00;;;18.20;93.90;;;;;;4943995;29;20874;-80
2023/10/05 04:22:54;;;;;;;5.97;3.30;;;18.20;93.90;;;;;;4955939;28;20457;-80
2023/10/05 04:25:20;;;;;;;4.17;3.60;;;18.20;94.20;;;;;;4952123;29;20426;-81
2023/10/05 04:27:46;;;;;;;3.37;2.90;;;18.20;93.90;;;;;;4950568;29;20434;-80
2023/10/05 04:30:16;;;;;;;4.07;3.30;;;18.20;93.90;;;;;;4918603;29;20253;-80
2023/10/05 04:32:43;;;;;;;5.70;3.40;;;18.20;93.90;;;;;;4950380;29;20451;-80
2023/10/05 04:35:26;;;;;;;4.80;3.03;;;18.20;93.90;;;;;;4951593;28;20434;-80
2023/10/05 04:37:52;;;;;;;4.50;3.03;;;18.20;93.90;;;;;;4951096;28;20462;-80
2023/10/05 04:40:21;;;;;;;3.77;3.40;;;18.20;93.90;;;;;;4949989;29;20540;-80
2023/10/05 04:42:47;;;;;;;3.33;3.03;;;18.10;93.90;;;;;;4950361;29;20798;-80
2023/10/05 04:45:14;;;;;;;4.10;3.27;;;18.20;93.90;;;;;;4951003;28;20550;-80
2023/10/05 04:47:41;;;;;;;4.20;3.47;;;18.20;94.00;;;;;;4950667;28;20440;-80
2023/10/05 04:50:13;;;;;;;4.20;2.73;;;18.20;93.90;;;;;;4950617;29;20449;-80
2023/10/05 04:52:39;;;;;;;5.07;3.80;;;18.20;93.90;;;;;;4950519;28;20514;-80
2023/10/05 04:55:23;;;;;;;7.13;3.50;;;18.10;93.90;;;;;;4949452;29;21007;-80
2023/10/05 04:57:55;;;;;;;3.07;2.73;;;18.10;93.80;;;;;;4967044;28;20460;-80
2023/10/05 05:08:20;;;;;;;3.87;3.57;;;18.10;94.00;;;;;;4944768;28;20438;-81
2023/10/05 05:10:50;;;;;;;3.87;3.47;;;18.10;94.00;;;;;;4953183;28;20434;-81
2023/10/05 05:13:20;;;;;;;5.07;3.07;;;18.10;93.90;;;;;;4952786;28;20559;-81
2023/10/05 05:15:49;;;;;;;3.40;3.10;;;18.10;93.90;;;;;;4952898;28;20468;-81
2023/10/05 05:18:16;;;;;;;4.37;2.93;;;18.10;93.90;;;;;;4952772;28;20442;-81
2023/10/05 05:20:44;;;;;;;6.70;3.93;;;18.10;93.90;;;;;;4920778;28;20907;-81
2023/10/05 05:23:12;;;;;;;4.43;3.50;;;18.10;94.00;;;;;;4952884;28;20428;-81
2023/10/05 05:25:40;;;;;;;4.73;3.20;;;18.10;93.90;;;;;;4936147;28;20480;-81
2023/10/05 05:28:07;;;;;;;4.80;3.67;;;18.30;94.70;;;;;;4969155;28;20432;-81
2023/10/05 05:30:36;;;;;;;3.87;3.00;;;18.10;94.00;;;;;;4969583;28;20441;-81
2023/10/05 05:33:10;;;;;;;5.37;3.77;;;18.20;94.30;;;;;;4952667;28;20519;-81
2023/10/05 05:35:39;;;;;;;6.70;3.77;;;18.00;93.90;;;;;;4969963;28;20432;-81
2023/10/05 05:38:09;;;;;;;4.07;3.77;;;18.00;93.90;;;;;;4970040;28;20430;-81
2023/10/05 05:40:36;;;;;;;4.47;3.20;;;18.00;93.90;;;;;;4969749;28;20584;-81
2023/10/05 05:43:12;;;;;;;4.07;3.30;;;18.00;93.90;;;;;;4968789;28;21531;-80
2023/10/05 05:45:45;;;;;;;4.47;3.07;;;18.00;94.00;;;;;;4925291;28;20437;-81
2023/10/05 05:48:16;;;;;;;3.50;3.00;;;18.00;93.90;;;;;;4969451;28;20450;-82
2023/10/05 05:50:45;;;;;;;6.20;3.67;;;18.00;93.90;;;;;;4968475;28;20509;-81
2023/10/05 05:53:16;;;;;;;4.60;3.10;;;18.00;93.90;;;;;;4951715;28;20468;-81
2023/10/05 05:55:52;;;;;;;4.20;3.80;;;18.00;94.00;;;;;;4951585;28;20501;-82
2023/10/05 05:58:19;;;;;;;6.27;3.63;;;18.00;93.90;;;;;;4940993;29;20445;-81
2023/10/05 06:00:47;;;;;;;3.73;2.70;;;18.00;94.00;;;;;;4931798;29;20474;-82
2023/10/05 06:03:14;;;;;;;4.00;2.87;;;18.00;94.30;;;;;;4948759;29;20435;-80
2023/10/05 06:06:03;;;;;;;3.43;3.13;;;18.00;93.90;;;;;;4932101;29;20518;-81
2023/10/05 06:08:31;;;;;;;4.27;3.20;;;18.00;94.00;;;;;;4948372;29;20473;-81
2023/10/05 06:10:58;;;;;;;4.67;3.67;;;18.00;93.90;;;;;;4948704;29;20434;-81
2023/10/05 06:13:26;;;;;;;4.37;3.97;;;18.00;94.00;;;;;;4948641;29;20433;-81
2023/10/05 06:15:54;;;;;;;7.17;3.70;;;18.00;94.00;;;;;;4916048;29;20823;-81
2023/10/05 06:18:22;;;;;;;5.60;2.87;;;18.00;94.00;;;;;;4893811;29;20441;-82
2023/10/05 06:20:50;;;;;;;3.87;3.37;;;17.90;93.90;;;;;;4948634;29;20488;-81
2023/10/05 06:23:16;;;;;;;5.87;2.90;;;17.90;94.00;;;;;;4916133;29;20473;-81
2023/10/05 06:25:44;;;;;;;4.03;2.70;;;17.90;94.00;;;;;;4931581;29;20827;-81
2023/10/05 06:28:10;;;;;;;5.40;3.17;;;17.90;94.00;;;;;;4916335;29;20205;-81
2023/10/05 06:30:38;;;;;;;6.47;3.30;;;17.90;94.00;;;;;;4948685;29;20434;-81
2023/10/05 06:33:09;;;;;;;4.13;2.90;;;17.90;94.00;;;;;;4931933;29;20930;-81
2023/10/05 06:35:36;;;;;;;3.37;3.07;;;17.90;93.90;;;;;;4948789;29;20528;-81
2023/10/05 06:38:09;;;;;;;4.33;3.70;;;17.80;93.90;;;;;;4935678;29;21051;-81
2023/10/05 06:40:35;;;;;;;4.80;3.07;;;17.90;94.00;;;;;;4919182;29;20485;-83
2023/10/05 06:43:05;;;;;;;6.03;3.40;;;17.90;94.10;;;;;;4935378;29;20919;-82
2023/10/05 06:45:37;;;;;;;4.53;3.23;;;17.90;94.00;;;;;;4952481;29;20470;-82
2023/10/05 06:48:04;;;;;;;4.77;3.37;;;17.90;94.00;;;;;;4935263;29;21153;-82
2023/10/05 06:50:30;;;;;;;4.63;2.90;;;17.90;94.00;;;;;;4935480;29;20467;-81
2023/10/05 06:52:56;;;;;;;4.20;3.40;;;17.90;94.00;;;;;;4935257;29;20538;-82
2023/10/05 06:55:22;;;;;;;4.40;4.00;;;17.90;94.10;;;;;;4940292;29;20521;-82
2023/10/05 06:57:50;;;;;;;4.60;3.33;;;17.90;94.10;;;;;;4940838;29;20222;-82
2023/10/05 07:00:20;;;;;;;3.90;3.00;;;17.90;94.40;;;;;;4921347;29;20469;-84
2023/10/05 07:02:47;;;;;;;6.60;3.50;;;17.90;94.40;;;;;;4933024;29;20554;-85
2023/10/05 07:05:16;;;;;;;4.53;3.33;;;17.90;94.10;;;;;;4941054;29;20465;-83
2023/10/05 07:07:42;;;;;;;4.50;3.40;;;17.90;94.10;;;;;;4930662;29;20426;-85
2023/10/05 07:10:17;;;;;;;4.10;3.17;;;17.90;94.10;;;;;;4939320;29;20438;-84
2023/10/05 07:12:46;;;;;;;5.20;3.60;;;17.90;94.10;;;;;;4929442;29;20457;-83
2023/10/05 07:15:19;;;;;;;3.33;3.03;;;17.90;94.10;;;;;;4936685;29;20430;-85
2023/10/05 07:17:53;;;;;;;7.60;3.20;;;17.80;94.00;;;;;;4921494;29;20445;-86
2023/10/05 07:20:19;;;;;;;3.70;2.70;;;17.90;94.10;;;;;;4921524;29;20579;-86
2023/10/05 07:22:48;;;;;;;4.70;3.87;;;17.90;94.10;;;;;;4937468;29;20438;-86
2023/10/05 07:25:16;;;;;;;3.77;3.10;;;17.90;94.10;;;;;;4917617;29;20511;-81
2023/10/05 07:27:42;;;;;;;3.40;3.00;;;17.80;94.10;;;;;;4925481;29;20431;-84
2023/10/05 07:30:09;;;;;;;6.60;2.80;;;17.90;94.10;;;;;;4913265;29;20451;-82
2023/10/05 07:32:35;;;;;;;5.70;3.57;;;17.80;94.50;;;;;;4910359;29;20470;-85
2023/10/05 07:35:05;;;;;;;5.23;3.77;;;17.80;94.10;;;;;;4929719;29;20438;-84
2023/10/05 07:37:36;;;;;;;6.07;3.43;;;17.80;94.10;;;;;;4926084;29;20445;-86
2023/10/05 07:40:04;;;;;;;4.40;2.87;;;17.80;94.10;;;;;;4921711;29;21131;-86
2023/10/05 07:42:32;;;;;;;5.67;3.30;;;17.80;94.50;;;;;;4907717;29;20507;-86
2023/10/05 07:44:59;;;;;;;4.00;3.30;;;17.80;94.20;;;;;;4924193;29;20439;-87
2023/10/05 07:47:25;;;;;;;3.37;2.90;;;17.80;94.20;;;;;;4956198;29;20506;-85
2023/10/05 07:49:56;;;;;;;5.10;3.77;;;17.80;94.20;;;;;;4954934;28;20443;-85
2023/10/05 07:52:22;;;;;;;4.43;3.20;;;17.80;94.20;;;;;;4922626;29;20554;-88
2023/10/05 07:54:48;;;;;;;4.77;2.90;;;17.80;94.20;;;;;;4955258;29;20532;-85
2023/10/05 07:57:17;;;;;;;5.67;3.60;;;17.80;94.20;;;;;;4934680;28;20548;-88
2023/10/05 07:59:43;;;;;;;5.00;3.47;;;17.80;94.20;;;;;;4957187;28;20569;-88
2023/10/05 08:02:14;;;;;;;5.00;3.90;;;17.80;94.40;;;;;;4973779;28;20892;-85
2023/10/05 08:04:41;;;;;;;5.27;2.90;;;17.90;94.40;;;;;;4942385;28;20189;-87
2023/10/05 08:07:11;;;;;;;5.00;3.37;;;17.80;94.30;;;;;;4959593;28;20440;-82
2023/10/05 08:09:38;;;;;;;5.27;2.97;;;17.80;94.40;;;;;;4973052;28;20429;-82
2023/10/05 08:12:04;;;;;;;4.90;3.17;;;17.80;94.40;;;;;;4964238;28;20441;-85
2023/10/05 08:14:30;;;;;;;6.30;3.20;;;17.80;94.30;;;;;;4980481;28;20474;-86
2023/10/05 08:16:57;;;;;;;4.87;3.47;;;17.80;94.40;;;;;;4962116;28;20763;-87
2023/10/05 08:19:26;;;;;;;5.67;3.53;;;17.80;94.50;;;;;;4965739;28;20468;-84
2023/10/05 08:22:01;;;;;;;7.73;3.20;;;17.80;94.40;;;;;;4945542;28;20442;-86
2023/10/05 08:24:27;;;;;;;6.37;3.20;;;17.80;94.50;;;;;;4944417;28;20448;-85
2023/10/05 08:26:58;;;;;;;5.30;3.63;;;17.80;94.50;;;;;;4976587;28;20433;-86
2023/10/05 08:29:51;;;;;;;6.60;4.00;;;17.80;94.50;;;;;;4935288;29;20429;-85
2023/10/05 08:32:47;;;;;;;3.73;3.03;;;18.00;94.60;;;;;;4958800;28;20445;-83
2023/10/05 08:35:18;;;;;;;3.53;2.60;;;18.00;95.20;;;;;;4947011;28;20448;-86
2023/10/05 08:37:52;;;;;;;3.77;3.00;;;18.10;95.00;;;;;;4971584;28;20461;-85
2023/10/05 08:40:45;;;;;;;6.50;3.07;;;18.00;95.20;;;;;;4957906;28;20543;-85
2023/10/05 08:43:16;;;;;;;4.37;3.90;;;17.80;94.70;;;;;;4955007;28;20461;-85
2023/10/05 08:46:19;;;;;;;3.47;3.00;;;17.80;95.00;;;;;;4929884;29;20442;-85
2023/10/05 08:48:46;;;;;;;4.97;3.17;;;18.10;94.90;;;;;;4963818;28;20430;-83
2023/10/05 08:52:14;;;;;;;7.20;3.30;;;17.80;94.70;;;;;;4947446;29;20434;-84
2023/10/05 08:54:47;;;;;;;5.23;3.57;;;17.70;94.70;;;;;;4932961;29;20545;-83
2023/10/05 08:58:05;;;;;;;5.70;2.80;;;18.20;95.10;;;;;;4925955;29;20802;-85
2023/10/05 09:01:03;;;;;;;3.83;3.07;;;17.40;94.60;;;;;;4930720;28;20609;-84
2023/10/05 09:03:49;;;;;;;4.00;2.87;;;17.50;94.80;;;;;;4939568;28;20429;-84
2023/10/05 09:06:20;;;;;;;4.00;3.10;;;17.80;95.10;;;;;;4961589;28;20434;-84
2023/10/05 09:08:54;;;;;;;7.37;3.90;;;17.80;94.90;;;;;;4938938;28;20472;-85
2023/10/05 09:11:33;;;;;;;6.80;3.40;;;17.80;95.00;;;;;;4922628;28;20770;-84
2023/10/05 09:14:27;;;;;;;6.50;2.93;;;18.00;95.20;;;;;;4953825;28;21136;-84
2023/10/05 09:17:09;;;;;;;4.10;3.53;;;17.80;95.20;;;;;;4939754;28;20505;-86
2023/10/05 09:19:40;;;;;;;4.50;3.13;;;17.80;95.10;;;;;;4937553;29;20525;-84
2023/10/05 09:36:20;;;;;;;3.67;2.90;;;18.50;95.50;;;;;;4933658;29;20809;-84
2023/10/05 09:50:34;;;;;;;4.23;3.30;;;17.80;95.80;;;;;;4959989;28;20599;-69
2023/10/05 09:53:06;;;;;;;6.80;3.33;;;17.90;95.50;;;;;;4929276;28;20975;-69
2023/10/05 09:55:36;;;;;;;6.03;3.20;;;17.80;95.40;;;;;;4944540;28;20448;-70
2023/10/05 09:58:12;;;;;;;4.73;3.17;;;17.90;95.50;;;;;;4959952;28;20534;-69
2023/10/05 10:03:08;;;;;;;6.93;3.37;;;17.90;95.40;;;;;;4944190;28;20559;-69
2023/10/05 10:05:44;;;;;;;5.67;4.07;;;17.90;95.40;;;;;;4944293;28;20518;-70
2023/10/05 10:08:23;;;;;;;6.87;2.80;;;17.90;95.40;;;;;;4944357;28;20808;-70
2023/10/05 10:11:06;;;;;;;3.87;3.10;;;18.00;95.50;;;;;;4944554;28;20520;-70
2023/10/05 10:13:37;;;;;;;3.53;2.90;;;18.00;95.50;;;;;;4965728;28;20467;-69
2023/10/05 10:16:22;;;;;;;3.97;2.90;;;18.00;95.80;;;;;;4932666;28;20628;-70
2023/10/05 10:18:53;;;;;;;3.30;3.00;;;18.00;95.40;;;;;;4948111;28;20433;-70
2023/10/05 10:21:24;;;;;;;4.30;3.13;;;18.00;95.40;;;;;;4965482;28;20500;-70
2023/10/05 10:24:09;;;;;;;3.30;3.00;;;18.00;95.40;;;;;;4965679;28;21037;-69
2023/10/05 10:27:08;;;;;;;5.60;3.03;;;18.00;95.30;;;;;;4947577;28;20428;-70
2023/10/05 10:29:51;;;;;;;4.20;3.00;;;18.00;95.30;;;;;;4947784;28;20421;-69
2023/10/05 10:32:31;;;;;;;8.80;3.53;;;18.10;95.30;;;;;;4965120;28;20859;-70
2023/10/05 10:35:13;;;;;;;7.37;3.53;;;18.00;95.20;;;;;;4965141;28;20807;-68
2023/10/05 10:37:48;;;;;;;8.53;3.60;;;18.00;95.30;;;;;;4948077;28;20931;-70
2023/10/05 10:45:40;;;;;;;5.80;3.00;;;18.10;95.20;;;;;;4947578;28;20448;-70
2023/10/05 10:50:52;;;;;;;5.07;3.47;;;18.10;95.30;;;;;;4965130;28;20665;-70
2023/10/05 10:53:25;;;;;;;4.53;2.87;;;18.10;95.30;;;;;;4965220;28;20420;-70
2023/10/05 10:56:03;;;;;;;6.37;3.40;;;18.10;95.30;;;;;;4947262;28;20460;-71
2023/10/05 10:58:33;;;;;;;6.50;3.23;;;18.10;95.30;;;;;;4940140;28;20453;-70
2023/10/05 11:01:03;;;;;;;6.00;3.50;;;18.10;95.20;;;;;;4930522;28;20552;-70
2023/10/05 11:03:30;;;;;;;4.83;2.80;;;18.10;95.30;;;;;;4945902;28;20539;-71
2023/10/05 11:06:00;;;;;;;10.40;4.00;;;18.20;95.30;;;;;;4946259;28;20446;-70
2023/10/05 11:08:40;;;;;;;7.33;3.03;;;18.10;95.20;;;;;;4946214;28;20521;-70
2023/10/05 11:11:19;;;;;;;5.90;3.37;;;18.20;95.30;;;;;;4944751;28;20434;-70
2023/10/05 11:13:55;;;;;;;6.10;3.00;;;18.20;95.20;;;;;;4942276;28;20462;-70
2023/10/05 11:16:33;;;;;;;7.53;2.97;;;18.20;95.20;;;;;;4964652;28;20787;-71
2023/10/05 11:19:00;;;;;;;4.50;3.33;;;18.20;95.20;;;;;;4956334;28;20508;-70
2023/10/05 11:21:39;;;;;;;5.07;3.00;;;18.20;95.20;;;;;;4958297;28;20528;-70
2023/10/05 11:24:08;;;;;;;8.80;3.73;;;18.20;95.20;;;;;;4955668;28;20546;-70
2023/10/05 11:29:28;;;;;;;7.77;4.33;;;18.20;95.10;;;;;;4958180;28;20938;-72
2023/10/05 11:32:01;;;;;;;8.83;3.23;;;18.30;95.50;;;;;;4963973;28;20441;-72
2023/10/05 11:34:38;;;;;;;6.43;3.20;;;18.30;95.10;;;;;;4964253;28;20461;-72
2023/10/05 11:37:15;;;;;;;5.90;3.20;;;18.30;95.10;;;;;;4963688;28;20426;-72
2023/10/05 11:39:50;;;;;;;4.57;3.30;;;18.30;95.10;;;;;;4962628;28;20925;-72
2023/10/05 11:42:24;;;;;;;5.23;2.73;;;18.30;95.10;;;;;;4947001;28;21053;-70
2023/10/05 11:48:04;;;;;;;5.67;3.20;;;18.30;95.00;;;;;;901413;26;20836;-70
2023/10/05 11:50:51;;;;;;;4.17;3.20;;;18.30;95.10;;;;;;4904435;29;20470;-71
2023/10/05 11:53:20;;;;;;;4.83;3.00;;;18.40;95.10;;;;;;4892983;29;20452;-72
2023/10/05 11:55:50;;;;;;;4.70;3.40;;;18.40;95.10;;;;;;4924333;29;20903;-71
2023/10/05 11:58:22;;;;;;;7.90;3.17;;;18.40;95.10;;;;;;4907740;29;20426;-72
2023/10/05 12:00:48;;;;;;;5.73;3.43;;;18.40;95.00;;;;;;4941065;29;20474;-71
2023/10/05 12:03:16;;;;;;;4.37;2.93;;;18.40;95.00;;;;;;4922842;29;20477;-72
2023/10/05 12:05:43;;;;;;;4.77;3.30;;;18.50;95.10;;;;;;4924627;29;20571;-71
2023/10/05 12:08:12;;;;;;;4.80;3.33;;;18.40;94.90;;;;;;4942194;29;20432;-72
2023/10/05 12:10:45;;;;;;;4.83;3.03;;;18.50;95.00;;;;;;4924961;29;20488;-71
2023/10/05 12:13:12;;;;;;;6.50;3.40;;;18.40;95.00;;;;;;4924903;29;20482;-71
2023/10/05 12:15:41;;;;;;;6.33;2.90;;;18.40;95.00;;;;;;4908032;29;20491;-71
2023/10/05 12:18:12;;;;;;;7.13;3.20;;;18.50;95.10;;;;;;4923693;29;21049;-71
2023/10/05 12:20:49;;;;;;;4.87;3.63;;;18.50;95.00;;;;;;4924346;29;20580;-71
2023/10/05 12:23:16;;;;;;;7.70;3.83;;;18.50;95.00;;;;;;4925107;29;20790;-72
2023/10/05 12:25:42;;;;;;;7.13;3.40;;;18.50;95.00;;;;;;4909734;29;20454;-71
2023/10/05 12:28:11;;;;;;;5.40;3.50;;;18.50;95.00;;;;;;4925171;29;20903;-71
2023/10/05 12:30:44;;;;;;;7.53;3.37;;;18.60;95.00;;;;;;4925386;29;20452;-71
2023/10/05 12:33:11;;;;;;;8.03;3.00;;;18.60;95.00;;;;;;4924550;29;20526;-71
2023/10/05 12:35:38;;;;;;;5.30;3.67;;;18.60;95.00;;;;;;4924796;29;20569;-71
2023/10/05 12:38:06;;;;;;;4.30;3.20;;;18.60;95.00;;;;;;4942324;29;20431;-71
2023/10/05 12:40:41;;;;;;;6.33;3.20;;;18.60;95.00;;;;;;4899395;29;20471;-71
2023/10/05 12:43:15;;;;;;;5.40;3.10;;;18.60;95.00;;;;;;4923315;29;20441;-71
2023/10/05 12:45:44;;;;;;;6.07;3.60;;;18.60;95.00;;;;;;4909677;29;20442;-71
2023/10/05 12:48:14;;;;;;;5.00;3.20;;;18.60;94.90;;;;;;4925923;29;20473;-70
2023/10/05 12:51:11;;;;;;;6.07;3.30;;;18.70;94.80;;;;;;4926976;29;20433;-71
2023/10/05 12:53:41;;;;;;;7.47;3.70;;;18.70;94.80;;;;;;4924927;29;20538;-71
2023/10/05 12:56:27;;;;;;;4.40;2.60;;;18.70;94.80;;;;;;4910222;29;20507;-71
2023/10/05 12:58:54;;;;;;;5.40;3.37;;;18.70;94.80;;;;;;4924339;29;20478;-71
2023/10/05 13:01:26;;;;;;;4.83;3.53;;;18.70;94.80;;;;;;4942496;29;20946;-72
2023/10/05 13:03:52;;;;;;;7.93;3.20;;;18.70;94.80;;;;;;4941803;29;20442;-71
2023/10/05 13:06:24;;;;;;;4.27;2.60;;;18.70;94.70;;;;;;4908986;29;20897;-71
2023/10/05 13:08:50;;;;;;;3.40;2.97;;;18.70;94.70;;;;;;4909412;29;20917;-70
2023/10/05 13:11:22;;;;;;;4.67;3.30;;;18.80;94.70;;;;;;4926119;29;20838;-69
2023/10/05 13:13:50;;;;;;;8.30;3.40;;;18.80;94.70;;;;;;4923289;29;20642;-69
2023/10/05 13:16:21;;;;;;;3.10;2.80;;;18.80;94.70;;;;;;4942856;28;20455;-69
2023/10/05 13:18:54;;;;;;;6.23;3.83;;;18.80;94.70;;;;;;4926132;29;20528;-69
2023/10/05 13:21:22;;;;;;;4.60;2.73;;;18.90;94.70;;;;;;4942961;29;20994;-69
2023/10/05 13:23:52;;;;;;;5.00;2.97;;;18.90;94.70;;;;;;4909238;29;20801;-69
2023/10/05 13:26:18;;;;;;;3.57;2.67;;;18.80;94.70;;;;;;4910243;29;20493;-68
2023/10/05 13:28:47;;;;;;;4.90;3.17;;;18.90;94.70;;;;;;4925670;29;20904;-69
2023/10/05 13:31:20;;;;;;;6.07;3.63;;;19.10;94.80;;;;;;4943638;29;21012;-69
2023/10/05 13:33:54;;;;;;;4.13;3.73;;;18.90;94.60;;;;;;4909714;29;20445;-69
2023/10/05 13:36:24;;;;;;;7.97;3.97;;;18.90;94.60;;;;;;4943126;28;21080;-69
2023/10/05 13:38:51;;;;;;;3.17;2.80;;;18.90;94.50;;;;;;4942767;29;20923;-69
2023/10/05 13:41:18;;;;;;;4.23;2.50;;;19.00;94.50;;;;;;4943015;29;20554;-69
2023/10/05 13:43:48;;;;;;;5.43;3.57;;;18.90;94.50;;;;;;4910601;29;20554;-69
2023/10/05 13:46:16;;;;;;;4.70;3.00;;;19.00;94.50;;;;;;4927302;29;21041;-68
2023/10/05 13:48:53;;;;;;;3.67;3.03;;;19.00;94.40;;;;;;4931882;29;20431;-69
2023/10/05 13:51:20;;;;;;;3.23;2.80;;;19.00;94.40;;;;;;4916232;29;20904;-69
2023/10/05 13:53:53;;;;;;;4.00;3.20;;;19.00;94.40;;;;;;4916307;29;20471;-69
2023/10/05 13:56:27;;;;;;;4.63;3.17;;;19.00;94.40;;;;;;4948807;28;20470;-69
2023/10/05 13:59:01;;;;;;;4.60;3.00;;;19.00;94.40;;;;;;4949151;28;20497;-69
2023/10/05 14:01:43;;;;;;;3.60;2.90;;;19.00;94.40;;;;;;4931831;29;20473;-69
2023/10/05 14:04:12;;;;;;;5.63;2.80;;;19.00;94.40;;;;;;4900517;28;21014;-69
2023/10/05 14:06:43;;;;;;;4.70;3.43;;;19.10;94.40;;;;;;4931690;29;20475;-68
2023/10/05 14:09:15;;;;;;;5.07;3.50;;;19.00;94.40;;;;;;4932485;29;20506;-69
2023/10/05 14:11:42;;;;;;;3.43;3.13;;;19.10;94.40;;;;;;4932227;29;20431;-69
2023/10/05 14:14:10;;;;;;;6.00;3.00;;;19.00;94.30;;;;;;4916170;28;20418;-69
2023/10/05 14:16:50;;;;;;;4.40;3.47;;;19.00;94.30;;;;;;4948989;28;20521;-69